createdAt,value
2023-05-14T00:01:10.281Z,95544.72
2023-05-14T00:03:41.510Z,95546.91
2023-05-14T00:06:09.191Z,95551.25
2023-05-14T00:08:36.313Z,95545.25
2023-05-14T00:11:03.090Z,95545.25
2023-05-14T00:13:29.943Z,95540.97
2023-05-14T00:15:56.909Z,95539.31
2023-05-14T00:18:23.807Z,95535.03
2023-05-14T00:20:54.922Z,95524.72
2023-05-14T00:23:22.769Z,95524.13
2023-05-14T00:25:50.240Z,95528.38
2023-05-14T00:28:17.085Z,95521.28
2023-05-14T00:30:44.805Z,95522.94
2023-05-14T00:33:11.636Z,95525.66
2023-05-14T00:35:38.757Z,95519.09
2023-05-14T00:38:06.023Z,95514.22
2023-05-14T00:40:33.049Z,95508.78
2023-05-14T00:43:00.060Z,95513.38
2023-05-14T00:45:26.973Z,95514.72
2023-05-14T00:47:54.314Z,95513.03
2023-05-14T00:50:21.433Z,95510.22
2023-05-14T00:52:48.433Z,95506.66
2023-05-14T00:55:16.759Z,95501.75
2023-05-14T00:57:43.631Z,95505.72
2023-05-14T01:00:11.076Z,95505.72
2023-05-14T01:02:38.297Z,95504.13
2023-05-14T01:05:05.362Z,95499.84
2023-05-14T01:08:01.317Z,95503.13
2023-05-14T01:10:48.279Z,95492.91
2023-05-14T01:13:38.251Z,95497.28
2023-05-14T01:16:05.542Z,95502.22
2023-05-14T01:18:32.829Z,95495.56
2023-05-14T01:20:59.821Z,95499.09
2023-05-14T01:23:26.774Z,95496.75
2023-05-14T01:25:53.735Z,95502.47
2023-05-14T01:28:24.337Z,95501.94
2023-05-14T01:30:59.147Z,95502.00
2023-05-14T01:33:27.794Z,95498.22
2023-05-14T01:35:54.895Z,95503.63
2023-05-14T01:38:21.992Z,95504.72
2023-05-14T01:40:49.123Z,95504.44
2023-05-14T01:43:16.718Z,95498.22
2023-05-14T01:45:44.253Z,95500.75
2023-05-14T01:48:11.452Z,95506.16
2023-05-14T01:50:38.728Z,95491.84
2023-05-14T01:53:05.848Z,95496.75
2023-05-14T01:55:32.852Z,95499.19
2023-05-14T01:57:59.936Z,95493.81
2023-05-14T02:00:27.063Z,95494.13
2023-05-14T02:02:54.256Z,95498.78
2023-05-14T02:05:21.938Z,95494.47
2023-05-14T02:07:49.149Z,95499.03
2023-05-14T02:10:16.091Z,95491.75
2023-05-14T02:12:43.177Z,95491.75
2023-05-14T02:15:11.486Z,95488.81
2023-05-14T02:17:38.706Z,95496.38
2023-05-14T02:20:06.642Z,95495.34
2023-05-14T02:22:33.801Z,95493.91
2023-05-14T02:25:01.342Z,95496.59
2023-05-14T02:27:28.363Z,95489.50
2023-05-14T02:29:56.911Z,95495.22
2023-05-14T02:32:23.886Z,95486.50
2023-05-14T02:34:51.084Z,95479.22
2023-05-14T02:37:18.276Z,95482.78
2023-05-14T02:39:45.077Z,95485.53
2023-05-14T02:42:12.063Z,95481.19
2023-05-14T02:44:39.129Z,95479.56
2023-05-14T02:47:06.516Z,95478.72
2023-05-14T02:49:33.751Z,95476.00
2023-05-14T02:52:01.506Z,95477.63
2023-05-14T02:54:28.659Z,95476.81
2023-05-14T02:56:55.701Z,95476.81
2023-05-14T02:59:24.493Z,95473.88
2023-05-14T03:01:51.662Z,95472.03
2023-05-14T03:04:19.286Z,95472.25
2023-05-14T03:06:46.416Z,95470.06
2023-05-14T03:09:13.480Z,95464.41
2023-05-14T03:11:40.368Z,95467.63
2023-05-14T03:14:07.570Z,95472.50
2023-05-14T03:16:34.589Z,95463.03
2023-05-14T03:19:01.643Z,95465.16
2023-05-14T03:21:28.562Z,95464.06
2023-05-14T03:23:55.582Z,95458.94
2023-05-14T03:26:22.581Z,95463.53
2023-05-14T03:28:50.739Z,95460.03
2023-05-14T03:31:17.763Z,95467.88
2023-05-14T03:33:44.921Z,95465.44
2023-05-14T03:36:11.969Z,95457.56
2023-05-14T03:38:38.796Z,95461.34
2023-05-14T03:41:05.806Z,95460.78
2023-05-14T03:43:32.728Z,95467.53
2023-05-14T03:46:00.412Z,95467.53
2023-05-14T03:48:27.292Z,95458.06
2023-05-14T03:50:54.424Z,95457.25
2023-05-14T03:53:21.493Z,95472.38
2023-05-14T03:55:48.415Z,95467.47
2023-05-14T03:58:15.449Z,95467.47
2023-05-14T04:00:43.109Z,95469.66
2023-05-14T04:03:10.393Z,95470.75
2023-05-14T04:05:37.299Z,95473.50
2023-05-14T04:08:04.038Z,95474.63
2023-05-14T04:10:32.321Z,95482.22
2023-05-14T04:12:59.228Z,95482.25
2023-05-14T04:15:26.025Z,95473.88
2023-05-14T04:17:52.848Z,95464.94
2023-05-14T04:20:19.692Z,95466.59
2023-05-14T04:22:46.640Z,95471.22
2023-05-14T04:25:13.565Z,95471.22
2023-05-14T04:27:40.535Z,95464.22
2023-05-14T04:30:08.757Z,95464.75
2023-05-14T04:32:35.684Z,95472.91
2023-05-14T04:35:04.544Z,95467.22
2023-05-14T04:37:31.916Z,95467.75
2023-05-14T04:39:58.728Z,95466.94
2023-05-14T04:42:25.800Z,95469.91
2023-05-14T04:44:52.892Z,95477.25
2023-05-14T04:47:21.473Z,95475.34
2023-05-14T04:49:48.697Z,95475.59
2023-05-14T04:52:15.489Z,95480.78
2023-05-14T04:54:42.311Z,95480.78
2023-05-14T04:57:09.348Z,95483.22
2023-05-14T04:59:36.697Z,95478.63
2023-05-14T05:02:03.655Z,95475.94
2023-05-14T05:04:30.748Z,95484.91
2023-05-14T05:06:57.630Z,95480.59
2023-05-14T05:09:24.501Z,95481.97
2023-05-14T05:11:51.605Z,95486.91
2023-05-14T05:14:18.426Z,95485.28
2023-05-14T05:16:45.331Z,95486.66
2023-05-14T05:19:12.388Z,95485.88
2023-05-14T05:21:41.239Z,95485.91
2023-05-14T05:24:08.605Z,95478.84
2023-05-14T05:26:38.357Z,95489.13
2023-05-14T05:29:05.506Z,95488.84
2023-05-14T05:31:32.670Z,95494.84
2023-05-14T05:33:59.979Z,95488.31
2023-05-14T05:36:26.848Z,95490.78
2023-05-14T05:38:53.883Z,95488.06
2023-05-14T05:41:20.671Z,95479.97
2023-05-14T05:43:47.603Z,95479.47
2023-05-14T05:46:14.423Z,95479.50
2023-05-14T05:48:41.421Z,95486.59
2023-05-14T05:51:08.241Z,95483.56
2023-05-14T05:53:35.057Z,95480.28
2023-05-14T05:56:02.049Z,95479.44
2023-05-14T05:58:29.156Z,95481.28
2023-05-14T06:00:58.062Z,95479.84
2023-05-14T06:03:25.187Z,95480.03
2023-05-14T06:05:53.040Z,95470.69
2023-05-14T06:08:19.926Z,95479.84
2023-05-14T06:10:47.712Z,95470.25
2023-05-14T06:13:14.653Z,95477.16
2023-05-14T06:15:41.617Z,95468.63
2023-05-14T06:18:08.646Z,95469.81
2023-05-14T06:20:35.573Z,95465.53
2023-05-14T06:23:02.872Z,95473.00
2023-05-14T06:25:29.773Z,95470.75
2023-05-14T06:27:56.767Z,95478.13
2023-05-14T06:30:23.776Z,95478.91
2023-05-14T06:32:52.110Z,95480.13
2023-05-14T06:35:19.339Z,95480.66
2023-05-14T06:37:46.332Z,95476.97
2023-05-14T06:40:16.038Z,95479.28
2023-05-14T06:42:42.898Z,95474.50
2023-05-14T06:45:10.052Z,95472.81
2023-05-14T06:47:37.147Z,95478.91
2023-05-14T06:50:04.304Z,95479.34
2023-05-14T06:52:31.158Z,95476.03
2023-05-14T06:54:58.014Z,95470.59
2023-05-14T06:57:25.028Z,95477.88
2023-05-14T06:59:52.302Z,95480.88
2023-05-14T07:02:19.201Z,95467.59
2023-05-14T07:04:46.867Z,95475.25
2023-05-14T07:07:15.591Z,95477.66
2023-05-14T07:09:42.462Z,95473.47
2023-05-14T07:12:09.457Z,95481.22
2023-05-14T07:14:36.455Z,95476.72
2023-05-14T07:17:03.561Z,95479.44
2023-05-14T07:19:30.508Z,95485.56
2023-05-14T07:21:58.152Z,95488.69
2023-05-14T07:24:25.158Z,95486.94
2023-05-14T07:26:52.154Z,95476.31
2023-05-14T07:29:19.062Z,95482.38
2023-05-14T07:31:46.064Z,95485.16
2023-05-14T07:34:13.091Z,95478.50
2023-05-14T07:36:40.037Z,95478.13
2023-05-14T07:39:07.111Z,95476.97
2023-05-14T07:41:34.003Z,95480.34
2023-05-14T07:44:00.943Z,95475.47
2023-05-14T07:46:27.748Z,95474.97
2023-05-14T07:48:54.735Z,95465.66
2023-05-14T07:51:21.602Z,95469.84
2023-05-14T07:53:48.684Z,95463.63
2023-05-14T07:56:15.626Z,95463.81
2023-05-14T07:58:42.547Z,95457.28
2023-05-14T08:01:09.509Z,95465.28
2023-05-14T08:03:36.742Z,95453.19
2023-05-14T08:06:04.609Z,95465.97
2023-05-14T08:08:31.677Z,95454.63
2023-05-14T08:10:58.621Z,95455.38
2023-05-14T08:13:25.575Z,95458.75
2023-05-14T08:15:52.938Z,95458.72
2023-05-14T08:18:19.807Z,95441.41
2023-05-14T08:20:47.162Z,95449.16
2023-05-14T08:23:14.174Z,95452.53
2023-05-14T08:25:41.285Z,95453.09
2023-05-14T08:28:08.306Z,95448.66
2023-05-14T08:30:35.279Z,95441.03
2023-05-14T08:33:02.129Z,95444.50
2023-05-14T08:35:28.996Z,95452.50
2023-05-14T08:37:57.385Z,95446.69
2023-05-14T08:40:24.387Z,95458.31
2023-05-14T08:42:51.754Z,95453.38
2023-05-14T08:45:20.527Z,95450.00
2023-05-14T08:47:51.052Z,95459.94
2023-05-14T08:50:22.772Z,95447.47
2023-05-14T08:52:50.654Z,95445.63
2023-05-14T08:55:17.630Z,95447.34
2023-05-14T08:57:44.672Z,95448.97
2023-05-14T09:00:12.175Z,95448.00
2023-05-14T09:02:42.629Z,95444.66
2023-05-14T09:05:09.938Z,95449.66
2023-05-14T09:07:36.943Z,95446.47
2023-05-14T09:10:04.221Z,95439.28
2023-05-14T09:12:31.581Z,95436.09
2023-05-14T09:14:58.462Z,95436.16
2023-05-14T09:17:26.698Z,95441.84
2023-05-14T09:19:53.831Z,95438.31
2023-05-14T09:22:21.082Z,95440.00
2023-05-14T09:25:05.254Z,95435.78
2023-05-14T09:27:33.008Z,95445.97
2023-05-14T09:30:11.253Z,95444.38
2023-05-14T09:32:44.367Z,95432.56
2023-05-14T09:35:18.065Z,95433.84
2023-05-14T09:37:46.659Z,95430.75
2023-05-14T09:40:14.691Z,95434.50
2023-05-14T09:42:41.799Z,95426.50
2023-05-14T09:45:09.727Z,95427.84
2023-05-14T09:47:37.606Z,95424.84
2023-05-14T09:50:05.455Z,95422.00
2023-05-14T09:52:32.301Z,95425.53
2023-05-14T09:54:59.261Z,95417.72
2023-05-14T09:57:27.096Z,95420.50
2023-05-14T09:59:54.414Z,95416.72
2023-05-14T10:02:23.944Z,95417.16
2023-05-14T10:04:52.655Z,95399.06
2023-05-14T10:07:24.095Z,95407.94
2023-05-14T10:09:53.959Z,95396.00
2023-05-14T10:12:22.673Z,95396.97
2023-05-14T10:14:53.412Z,95401.16
2023-05-14T10:17:22.045Z,95404.16
2023-05-14T10:19:54.438Z,95410.31
2023-05-14T10:22:24.228Z,95416.06
2023-05-14T10:24:54.385Z,95400.59
2023-05-14T10:27:21.797Z,95413.47
2023-05-14T10:29:55.944Z,95406.78
2023-05-14T10:32:26.689Z,95410.06
2023-05-14T10:34:54.080Z,95415.41
2023-05-14T10:37:21.776Z,95412.81
2023-05-14T10:39:51.622Z,95415.41
2023-05-14T10:42:20.290Z,95402.75
2023-05-14T10:44:51.237Z,95413.34
2023-05-14T10:47:18.494Z,95398.69
2023-05-14T10:49:49.333Z,95392.13
2023-05-14T10:52:18.881Z,95400.03
2023-05-14T10:55:01.876Z,95392.94
2023-05-14T10:57:31.918Z,95404.50
2023-05-14T11:00:00.414Z,95406.72
2023-05-14T11:02:37.716Z,95398.72
2023-05-14T11:05:09.560Z,95397.03
2023-05-14T11:07:38.334Z,95405.06
2023-05-14T11:10:07.004Z,95387.56
2023-05-14T11:12:38.248Z,95386.28
2023-05-14T11:15:07.903Z,95391.50
2023-05-14T11:17:35.675Z,95395.06
2023-05-14T11:20:02.581Z,95388.28
2023-05-14T11:22:29.697Z,95392.03
2023-05-14T11:24:56.648Z,95400.66
2023-05-14T11:27:24.209Z,95387.84
2023-05-14T11:29:51.122Z,95382.38
2023-05-14T11:32:18.861Z,95389.16
2023-05-14T11:34:46.234Z,95378.94
2023-05-14T11:37:15.220Z,95385.41
2023-05-14T11:40:10.274Z,95397.00
2023-05-14T11:42:37.423Z,95386.47
2023-05-14T11:45:04.999Z,95390.19
2023-05-14T11:47:32.253Z,95379.97
2023-05-14T11:49:59.857Z,95382.38
2023-05-14T11:52:26.714Z,95383.31
2023-05-14T11:54:53.439Z,95382.63
2023-05-14T11:57:21.157Z,95382.72
2023-05-14T11:59:58.874Z,95375.63
2023-05-14T12:02:28.497Z,95375.16
2023-05-14T12:04:55.511Z,95372.41
2023-05-14T12:07:22.620Z,95367.44
2023-05-14T12:09:50.801Z,95364.34
2023-05-14T12:12:21.808Z,95367.75
2023-05-14T12:14:50.743Z,95357.97
2023-05-14T12:17:22.193Z,95359.63
2023-05-14T12:19:50.937Z,95348.94
2023-05-14T12:22:22.628Z,95359.47
2023-05-14T12:24:59.324Z,95357.06
2023-05-14T12:27:27.802Z,95349.84
2023-05-14T12:30:19.946Z,95350.66
2023-05-14T12:32:49.115Z,95347.13
2023-05-14T12:35:16.229Z,95347.69
2023-05-14T12:37:43.250Z,95343.69
2023-05-14T12:40:10.416Z,95335.44
2023-05-14T12:42:37.710Z,95335.75
2023-05-14T12:45:08.163Z,95332.50
2023-05-14T12:47:36.523Z,95342.16
2023-05-14T12:50:03.565Z,95344.94
2023-05-14T12:52:37.603Z,95342.81
2023-05-14T12:55:10.213Z,95335.91
2023-05-14T12:57:39.621Z,95333.66
2023-05-14T13:00:10.836Z,95334.13
2023-05-14T13:02:42.222Z,95335.72
2023-05-14T13:05:10.812Z,95333.50
2023-05-14T13:07:37.746Z,95333.34
2023-05-14T13:10:08.490Z,95328.06
2023-05-14T13:12:35.616Z,95332.16
2023-05-14T13:15:02.556Z,95321.00
2023-05-14T13:17:29.521Z,95322.88
2023-05-14T13:19:56.517Z,95325.31
2023-05-14T13:22:23.505Z,95325.63
2023-05-14T13:24:50.729Z,95318.41
2023-05-14T13:27:17.621Z,95318.19
2023-05-14T13:29:44.531Z,95317.09
2023-05-14T13:32:11.411Z,95311.56
2023-05-14T13:34:38.356Z,95305.00
2023-05-14T13:37:05.329Z,95301.19
2023-05-14T13:39:32.188Z,95300.16
2023-05-14T13:41:59.219Z,95298.06
2023-05-14T13:44:26.097Z,95294.53
2023-05-14T13:46:53.086Z,95302.16
2023-05-14T13:49:20.066Z,95304.94
2023-05-14T13:51:47.024Z,95289.22
2023-05-14T13:54:13.991Z,95290.00
2023-05-14T13:56:40.892Z,95288.44
2023-05-14T13:59:07.922Z,95284.09
2023-05-14T14:01:34.979Z,95279.91
2023-05-14T14:04:01.914Z,95277.50
2023-05-14T14:06:31.303Z,95273.25
2023-05-14T14:08:58.309Z,95275.13
2023-05-14T14:11:25.074Z,95267.31
2023-05-14T14:13:52.052Z,95275.09
2023-05-14T14:16:19.189Z,95272.59
2023-05-14T14:18:46.297Z,95269.03
2023-05-14T14:21:13.219Z,95280.31
2023-05-14T14:23:40.240Z,95267.09
2023-05-14T14:26:07.669Z,95270.59
2023-05-14T14:28:34.855Z,95289.63
2023-05-14T14:31:02.615Z,95292.53
2023-05-14T14:33:31.467Z,95290.97
2023-05-14T14:35:58.466Z,95291.38
2023-05-14T14:38:25.360Z,95289.88
2023-05-14T14:40:52.699Z,95274.56
2023-05-14T14:43:19.567Z,95277.88
2023-05-14T14:45:48.883Z,95288.97
2023-05-14T14:48:27.174Z,95291.38
2023-05-14T14:50:54.821Z,95293.69
2023-05-14T14:53:21.889Z,95293.84
2023-05-14T14:55:49.456Z,95300.41
2023-05-14T14:58:16.406Z,95315.91
2023-05-14T15:00:43.590Z,95314.75
2023-05-14T15:03:10.702Z,95302.78
2023-05-14T15:05:38.218Z,95305.09
2023-05-14T15:08:05.503Z,95315.44
2023-05-14T15:10:32.645Z,95329.34
2023-05-14T15:12:59.700Z,95328.91
2023-05-14T15:15:26.568Z,95322.88
2023-05-14T15:17:53.598Z,95320.97
2023-05-14T15:20:20.551Z,95325.78
2023-05-14T15:22:47.469Z,95329.91
2023-05-14T15:25:14.393Z,95333.13
2023-05-14T15:27:41.229Z,95337.00
2023-05-14T15:30:08.618Z,95340.97
2023-05-14T15:32:35.611Z,95337.41
2023-05-14T15:35:02.739Z,95337.03
2023-05-14T15:37:42.776Z,95338.66
2023-05-14T15:40:10.656Z,95335.69
2023-05-14T15:42:38.878Z,95340.06
2023-05-14T15:45:06.109Z,95337.59
2023-05-14T15:47:33.038Z,95334.31
2023-05-14T15:50:00.251Z,95342.34
2023-05-14T15:52:27.105Z,95347.34
2023-05-14T15:54:56.027Z,95349.06
2023-05-14T15:57:23.283Z,95350.28
2023-05-14T15:59:50.363Z,95344.53
2023-05-14T16:02:17.332Z,95344.75
2023-05-14T16:04:47.046Z,95353.72
2023-05-14T16:07:13.996Z,95350.53
2023-05-14T16:09:40.908Z,95360.88
2023-05-14T16:12:08.120Z,95367.13
2023-05-14T16:14:35.378Z,95366.03
2023-05-14T16:17:02.264Z,95369.25
2023-05-14T16:19:29.228Z,95365.53
2023-05-14T16:21:56.226Z,95379.72
2023-05-14T16:24:23.005Z,95370.44
2023-05-14T16:26:49.824Z,95378.53
2023-05-14T16:29:16.793Z,95378.34
2023-05-14T16:31:43.855Z,95386.00
2023-05-14T16:34:11.024Z,95390.41
2023-05-14T16:36:38.088Z,95395.03
2023-05-14T16:39:07.708Z,95395.38
2023-05-14T16:41:36.202Z,95385.84
2023-05-14T16:44:03.680Z,95384.31
2023-05-14T16:46:31.403Z,95381.47
2023-05-14T16:48:58.363Z,95388.41
2023-05-14T16:51:25.309Z,95386.28
2023-05-14T16:53:52.451Z,95378.75
2023-05-14T16:56:21.781Z,95379.28
2023-05-14T16:58:48.826Z,95368.16
2023-05-14T17:01:16.056Z,95367.06
2023-05-14T17:03:43.704Z,95365.75
2023-05-14T17:06:10.739Z,95365.78
2023-05-14T17:08:37.652Z,95368.00
2023-05-14T17:11:06.105Z,95360.38
2023-05-14T17:13:33.471Z,95343.22
2023-05-14T17:16:03.520Z,95352.78
2023-05-14T17:18:30.961Z,95361.22
2023-05-14T17:20:57.737Z,95353.31
2023-05-14T17:23:24.664Z,95357.94
2023-05-14T17:25:51.579Z,95359.84
2023-05-14T17:28:18.518Z,95352.81
2023-05-14T17:30:45.391Z,95355.00
2023-05-14T17:33:12.389Z,95359.59
2023-05-14T17:35:39.406Z,95363.13
2023-05-14T17:38:06.377Z,95368.84
2023-05-14T17:40:33.937Z,95375.91
2023-05-14T17:43:00.969Z,95379.16
2023-05-14T17:45:29.508Z,95384.31
2023-05-14T17:47:59.476Z,95379.97
2023-05-14T17:50:26.395Z,95384.88
2023-05-14T17:52:54.401Z,95388.97
2023-05-14T17:55:22.554Z,95389.25
2023-05-14T17:57:49.966Z,95397.16
2023-05-14T18:00:17.139Z,95394.44
2023-05-14T18:02:44.069Z,95391.44
2023-05-14T18:05:11.017Z,95389.53
2023-05-14T18:07:37.846Z,95399.84
2023-05-14T18:10:05.130Z,95412.59
2023-05-14T18:12:32.038Z,95408.00
2023-05-14T18:14:59.000Z,95400.34
2023-05-14T18:17:25.906Z,95409.84
2023-05-14T18:19:52.734Z,95416.09
2023-05-14T18:22:21.980Z,95413.66
2023-05-14T18:24:48.795Z,95421.22
2023-05-14T18:27:15.810Z,95419.59
2023-05-14T18:29:43.678Z,95425.00
2023-05-14T18:32:10.563Z,95427.75
2023-05-14T18:34:37.601Z,95431.59
2023-05-14T18:37:04.616Z,95432.66
2023-05-14T18:39:31.477Z,95429.66
2023-05-14T18:41:58.383Z,95437.03
2023-05-14T18:44:25.159Z,95438.72
2023-05-14T18:46:52.688Z,95437.06
2023-05-14T18:49:19.701Z,95435.19
2023-05-14T18:51:46.572Z,95433.81
2023-05-14T18:54:13.573Z,95433.81
2023-05-14T18:56:45.511Z,95441.41
2023-05-14T18:59:14.677Z,95443.06
2023-05-14T19:01:41.670Z,95438.16
2023-05-14T19:04:08.702Z,95437.56
2023-05-14T19:06:36.489Z,95439.16
2023-05-14T19:09:04.675Z,95434.00
2023-05-14T19:11:31.492Z,95438.88
2023-05-14T19:13:58.314Z,95444.81
2023-05-14T19:16:26.498Z,95450.47
2023-05-14T19:18:53.647Z,95445.06
2023-05-14T19:21:20.581Z,95451.84
2023-05-14T19:23:47.755Z,95455.63
2023-05-14T19:26:14.557Z,95459.72
2023-05-14T19:28:42.174Z,95453.75
2023-05-14T19:31:08.994Z,95454.84
2023-05-14T19:33:35.856Z,95455.69
2023-05-14T19:36:02.682Z,95454.88
2023-05-14T19:38:29.885Z,95455.94
2023-05-14T19:40:57.310Z,95454.03
2023-05-14T19:43:25.719Z,95457.00
2023-05-14T19:45:52.769Z,95470.03
2023-05-14T19:48:19.824Z,95465.06
2023-05-14T19:50:47.551Z,95470.16
2023-05-14T19:53:14.687Z,95474.16
2023-05-14T19:55:41.925Z,95490.06
2023-05-14T19:58:09.044Z,95483.22
2023-05-14T20:00:37.219Z,95489.72
2023-05-14T20:03:05.841Z,95489.47
2023-05-14T20:05:34.707Z,95497.91
2023-05-14T20:08:02.194Z,95504.44
2023-05-14T20:10:30.774Z,95510.63
2023-05-14T20:12:57.848Z,95505.47
2023-05-14T20:15:24.616Z,95510.63
2023-05-14T20:17:51.663Z,95515.25
2023-05-14T20:20:18.952Z,95510.94
2023-05-14T20:22:46.218Z,95515.06
2023-05-14T20:25:13.841Z,95519.97
2023-05-14T20:27:41.414Z,95525.69
2023-05-14T20:30:08.767Z,95533.88
2023-05-14T20:32:35.757Z,95534.13
2023-05-14T20:35:03.862Z,95538.03
2023-05-14T20:37:32.929Z,95525.22
2023-05-14T20:40:00.160Z,95497.22
2023-05-14T20:42:27.634Z,95485.91
2023-05-14T20:44:54.634Z,95486.03
2023-05-14T20:47:24.409Z,95483.22
2023-05-14T20:49:51.523Z,95484.00
2023-05-14T20:52:18.918Z,95477.75
2023-05-14T20:54:46.383Z,95478.50
2023-05-14T20:57:15.430Z,95463.03
2023-05-14T20:59:43.063Z,95454.84
2023-05-14T21:02:10.132Z,95457.00
2023-05-14T21:04:37.485Z,95460.03
2023-05-14T21:07:05.343Z,95466.25
2023-05-14T21:09:32.193Z,95461.16
2023-05-14T21:11:59.226Z,95452.72
2023-05-14T21:14:26.139Z,95465.94
2023-05-14T21:16:52.974Z,95461.16
2023-05-14T21:19:20.129Z,95460.34
2023-05-14T21:21:47.528Z,95452.22
2023-05-14T21:24:16.892Z,95459.75
2023-05-14T21:26:44.239Z,95456.25
2023-05-14T21:29:11.524Z,95455.94
2023-05-14T21:31:38.501Z,95445.38
2023-05-14T21:34:05.418Z,95434.19
2023-05-14T21:36:32.317Z,95444.81
2023-05-14T21:38:59.240Z,95439.59
2023-05-14T21:41:26.067Z,95445.16
2023-05-14T21:43:53.070Z,95447.53
2023-05-14T21:46:19.981Z,95457.78
2023-05-14T21:48:47.126Z,95469.91
2023-05-14T21:51:14.010Z,95471.25
2023-05-14T21:53:41.074Z,95471.25
2023-05-14T21:56:08.419Z,95469.59
2023-05-14T21:58:36.086Z,95473.97
2023-05-14T22:01:03.155Z,95470.09
2023-05-14T22:03:30.087Z,95471.69
2023-05-14T22:05:57.489Z,95472.75
2023-05-14T22:08:24.402Z,95474.38
2023-05-14T22:10:51.305Z,95458.97
2023-05-14T22:13:18.110Z,95475.97
2023-05-14T22:15:45.110Z,95473.75
2023-05-14T22:18:13.113Z,95478.53
2023-05-14T22:20:40.269Z,95484.66
2023-05-14T22:23:07.335Z,95470.19
2023-05-14T22:25:34.391Z,95474.47
2023-05-14T22:28:01.266Z,95469.56
2023-05-14T22:30:28.141Z,95469.06
2023-05-14T22:32:55.093Z,95461.53
2023-05-14T22:35:22.288Z,95470.19
2023-05-14T22:37:49.293Z,95466.69
2023-05-14T22:40:16.283Z,95464.78
2023-05-14T22:42:43.309Z,95464.78
2023-05-14T22:45:10.712Z,95461.53
2023-05-14T22:47:38.671Z,95464.28
2023-05-14T22:50:11.558Z,95462.97
2023-05-14T22:52:40.203Z,95456.81
2023-05-14T22:55:08.018Z,95454.94
2023-05-14T22:57:35.065Z,95450.88
2023-05-14T23:00:01.947Z,95446.59
2023-05-14T23:02:29.313Z,95448.53
2023-05-14T23:04:56.284Z,95444.00
2023-05-14T23:07:23.108Z,95447.03
2023-05-14T23:09:49.909Z,95451.19
2023-05-14T23:12:16.963Z,95452.38
2023-05-14T23:14:43.831Z,95457.13
2023-05-14T23:17:10.686Z,95450.13
2023-05-14T23:19:37.698Z,95446.13
2023-05-14T23:22:05.015Z,95445.63
2023-05-14T23:24:31.782Z,95448.59
2023-05-14T23:26:58.663Z,95446.44
2023-05-14T23:29:25.625Z,95451.09
2023-05-14T23:31:52.532Z,95453.53
2023-05-14T23:34:19.424Z,95442.47
2023-05-14T23:36:46.207Z,95445.91
2023-05-14T23:39:13.018Z,95435.31
2023-05-14T23:41:39.866Z,95431.19
2023-05-14T23:44:07.390Z,95437.69
2023-05-14T23:46:34.673Z,95434.19
2023-05-14T23:49:01.485Z,95434.69
2023-05-14T23:51:28.542Z,95431.75
2023-05-14T23:53:56.458Z,95416.22
2023-05-14T23:56:24.716Z,95417.81
2023-05-14T23:58:51.714Z,95408.00
